sensor_id;sensor_type;location;lat;lon;timestamp;temperature;humidity
14893;DHT22;7538;53.626;9.906;2023-05-20T00:00:49;12.60;87.40
14893;DHT22;7538;53.626;9.906;2023-05-20T00:03:17;12.60;87.80
14893;DHT22;7538;53.626;9.906;2023-05-20T00:05:45;12.50;87.40
14893;DHT22;7538;53.626;9.906;2023-05-20T00:08:12;12.50;87.90
14893;DHT22;7538;53.626;9.906;2023-05-20T00:10:38;12.50;87.80
14893;DHT22;7538;53.626;9.906;2023-05-20T00:13:05;12.60;88.20
14893;DHT22;7538;53.626;9.906;2023-05-20T00:15:33;12.60;88.60
14893;DHT22;7538;53.626;9.906;2023-05-20T00:18:02;12.60;88.40
14893;DHT22;7538;53.626;9.906;2023-05-20T00:20:29;12.60;88.00
14893;DHT22;7538;53.626;9.906;2023-05-20T00:22:56;12.60;87.60
14893;DHT22;7538;53.626;9.906;2023-05-20T00:25:23;12.70;87.70
14893;DHT22;7538;53.626;9.906;2023-05-20T00:27:50;12.70;88.00
14893;DHT22;7538;53.626;9.906;2023-05-20T00:30:16;12.70;87.30
14893;DHT22;7538;53.626;9.906;2023-05-20T00:32:43;12.70;87.00
14893;DHT22;7538;53.626;9.906;2023-05-20T00:35:11;12.60;86.80
14893;DHT22;7538;53.626;9.906;2023-05-20T00:37:38;12.60;87.20
14893;DHT22;7538;53.626;9.906;2023-05-20T00:40:06;12.60;87.50
14893;DHT22;7538;53.626;9.906;2023-05-20T00:42:33;12.60;87.50
14893;DHT22;7538;53.626;9.906;2023-05-20T00:45:00;12.70;87.90
14893;DHT22;7538;53.626;9.906;2023-05-20T00:47:30;12.60;88.40
14893;DHT22;7538;53.626;9.906;2023-05-20T00:49:58;12.60;88.50
14893;DHT22;7538;53.626;9.906;2023-05-20T00:52:28;12.70;88.30
14893;DHT22;7538;53.626;9.906;2023-05-20T00:54:57;12.60;88.10
14893;DHT22;7538;53.626;9.906;2023-05-20T00:57:24;12.50;88.90
14893;DHT22;7538;53.626;9.906;2023-05-20T00:59:51;12.50;89.30
14893;DHT22;7538;53.626;9.906;2023-05-20T01:02:18;12.50;89.80
14893;DHT22;7538;53.626;9.906;2023-05-20T01:04:45;12.50;90.20
14893;DHT22;7538;53.626;9.906;2023-05-20T01:07:14;12.50;90.30
14893;DHT22;7538;53.626;9.906;2023-05-20T01:09:43;12.60;90.60
14893;DHT22;7538;53.626;9.906;2023-05-20T01:12:13;12.50;90.90
14893;DHT22;7538;53.626;9.906;2023-05-20T01:14:45;12.40;91.30
14893;DHT22;7538;53.626;9.906;2023-05-20T01:17:14;12.40;91.60
14893;DHT22;7538;53.626;9.906;2023-05-20T01:19:43;12.40;91.80
14893;DHT22;7538;53.626;9.906;2023-05-20T01:22:11;12.40;92.40
14893;DHT22;7538;53.626;9.906;2023-05-20T01:24:41;12.40;92.80
14893;DHT22;7538;53.626;9.906;2023-05-20T01:27:09;12.40;93.10
14893;DHT22;7538;53.626;9.906;2023-05-20T01:29:36;12.40;93.70
14893;DHT22;7538;53.626;9.906;2023-05-20T01:32:06;12.40;94.20
14893;DHT22;7538;53.626;9.906;2023-05-20T01:34:35;12.40;94.90
14893;DHT22;7538;53.626;9.906;2023-05-20T01:37:04;12.40;95.20
14893;DHT22;7538;53.626;9.906;2023-05-20T01:39:34;12.40;95.40
14893;DHT22;7538;53.626;9.906;2023-05-20T01:42:04;12.40;95.90
14893;DHT22;7538;53.626;9.906;2023-05-20T01:44:31;12.40;96.30
14893;DHT22;7538;53.626;9.906;2023-05-20T01:46:59;12.40;96.70
14893;DHT22;7538;53.626;9.906;2023-05-20T01:49:25;12.30;96.90
14893;DHT22;7538;53.626;9.906;2023-05-20T01:51:53;12.30;97.30
14893;DHT22;7538;53.626;9.906;2023-05-20T01:54:20;12.30;97.60
14893;DHT22;7538;53.626;9.906;2023-05-20T01:56:47;12.30;97.90
14893;DHT22;7538;53.626;9.906;2023-05-20T01:59:15;12.30;98.30
14893;DHT22;7538;53.626;9.906;2023-05-20T02:01:42;12.30;98.60
14893;DHT22;7538;53.626;9.906;2023-05-20T02:04:09;12.30;99.00
14893;DHT22;7538;53.626;9.906;2023-05-20T02:06:36;12.30;99.30
14893;DHT22;7538;53.626;9.906;2023-05-20T02:09:03;12.30;99.50
14893;DHT22;7538;53.626;9.906;2023-05-20T02:11:29;12.30;99.80
14893;DHT22;7538;53.626;9.906;2023-05-20T02:13:56;12.20;99.90
14893;DHT22;7538;53.626;9.906;2023-05-20T02:16:24;12.20;99.90
14893;DHT22;7538;53.626;9.906;2023-05-20T02:18:51;12.20;99.90
14893;DHT22;7538;53.626;9.906;2023-05-20T02:21:18;12.20;99.90
14893;DHT22;7538;53.626;9.906;2023-05-20T02:23:45;12.20;99.90
14893;DHT22;7538;53.626;9.906;2023-05-20T02:26:12;12.10;99.90
14893;DHT22;7538;53.626;9.906;2023-05-20T02:28:38;12.10;99.90
14893;DHT22;7538;53.626;9.906;2023-05-20T02:31:11;12.10;99.90
14893;DHT22;7538;53.626;9.906;2023-05-20T02:33:39;12.10;99.90
14893;DHT22;7538;53.626;9.906;2023-05-20T02:36:06;12.00;99.90
14893;DHT22;7538;53.626;9.906;2023-05-20T02:38:33;12.00;99.90
14893;DHT22;7538;53.626;9.906;2023-05-20T02:41:00;12.00;99.90
14893;DHT22;7538;53.626;9.906;2023-05-20T02:43:29;11.90;99.90
14893;DHT22;7538;53.626;9.906;2023-05-20T02:45:55;11.80;99.90
14893;DHT22;7538;53.626;9.906;2023-05-20T02:48:22;11.80;99.90
14893;DHT22;7538;53.626;9.906;2023-05-20T02:50:50;11.70;99.90
14893;DHT22;7538;53.626;9.906;2023-05-20T02:53:17;11.60;99.90
14893;DHT22;7538;53.626;9.906;2023-05-20T02:55:45;11.60;99.90
14893;DHT22;7538;53.626;9.906;2023-05-20T02:58:13;11.60;99.90
14893;DHT22;7538;53.626;9.906;2023-05-20T03:00:40;11.50;99.90
14893;DHT22;7538;53.626;9.906;2023-05-20T03:03:07;11.50;99.90
14893;DHT22;7538;53.626;9.906;2023-05-20T03:05:35;11.60;99.90
14893;DHT22;7538;53.626;9.906;2023-05-20T03:08:06;11.60;99.90
14893;DHT22;7538;53.626;9.906;2023-05-20T03:10:34;11.60;99.90
14893;DHT22;7538;53.626;9.906;2023-05-20T03:13:01;11.50;99.90
14893;DHT22;7538;53.626;9.906;2023-05-20T03:15:29;11.50;99.90
14893;DHT22;7538;53.626;9.906;2023-05-20T03:17:56;11.50;99.90
14893;DHT22;7538;53.626;9.906;2023-05-20T03:20:23;11.50;99.90
14893;DHT22;7538;53.626;9.906;2023-05-20T03:22:50;11.50;99.90
14893;DHT22;7538;53.626;9.906;2023-05-20T03:25:18;11.60;99.90
14893;DHT22;7538;53.626;9.906;2023-05-20T03:27:45;11.50;99.90
14893;DHT22;7538;53.626;9.906;2023-05-20T03:30:12;11.50;99.90
14893;DHT22;7538;53.626;9.906;2023-05-20T03:32:39;11.60;99.90
14893;DHT22;7538;53.626;9.906;2023-05-20T03:35:07;11.60;99.90
14893;DHT22;7538;53.626;9.906;2023-05-20T03:37:34;11.50;99.90
14893;DHT22;7538;53.626;9.906;2023-05-20T03:40:01;11.50;99.90
14893;DHT22;7538;53.626;9.906;2023-05-20T03:42:32;11.40;99.90
14893;DHT22;7538;53.626;9.906;2023-05-20T03:44:58;11.50;99.90
14893;DHT22;7538;53.626;9.906;2023-05-20T03:47:25;11.40;99.90
14893;DHT22;7538;53.626;9.906;2023-05-20T03:49:52;11.50;99.90
14893;DHT22;7538;53.626;9.906;2023-05-20T03:52:19;11.40;99.90
14893;DHT22;7538;53.626;9.906;2023-05-20T03:54:46;11.40;99.90
14893;DHT22;7538;53.626;9.906;2023-05-20T03:57:13;11.50;99.90
14893;DHT22;7538;53.626;9.906;2023-05-20T03:59:41;11.50;99.90
14893;DHT22;7538;53.626;9.906;2023-05-20T04:02:08;11.60;99.90
14893;DHT22;7538;53.626;9.906;2023-05-20T04:04:35;11.60;99.90
14893;DHT22;7538;53.626;9.906;2023-05-20T04:07:02;11.70;99.90
14893;DHT22;7538;53.626;9.906;2023-05-20T04:09:29;11.80;99.90
14893;DHT22;7538;53.626;9.906;2023-05-20T04:11:56;11.80;99.90
14893;DHT22;7538;53.626;9.906;2023-05-20T04:14:23;8.90;99.90
14893;DHT22;7538;53.626;9.906;2023-05-20T04:16:51;12.00;99.90
14893;DHT22;7538;53.626;9.906;2023-05-20T04:19:18;12.00;99.90
14893;DHT22;7538;53.626;9.906;2023-05-20T04:21:45;12.00;99.90
14893;DHT22;7538;53.626;9.906;2023-05-20T04:24:12;13.90;99.90
14893;DHT22;7538;53.626;9.906;2023-05-20T04:26:39;12.10;99.90
14893;DHT22;7538;53.626;9.906;2023-05-20T04:29:05;12.20;99.90
14893;DHT22;7538;53.626;9.906;2023-05-20T04:31:32;12.20;99.90
14893;DHT22;7538;53.626;9.906;2023-05-20T04:34:00;12.20;99.90
14893;DHT22;7538;53.626;9.906;2023-05-20T04:36:29;12.20;99.90
14893;DHT22;7538;53.626;9.906;2023-05-20T04:38:56;12.10;99.90
14893;DHT22;7538;53.626;9.906;2023-05-20T04:41:23;12.10;99.90
14893;DHT22;7538;53.626;9.906;2023-05-20T04:43:51;12.10;99.90
14893;DHT22;7538;53.626;9.906;2023-05-20T04:46:18;12.10;99.90
14893;DHT22;7538;53.626;9.906;2023-05-20T04:48:45;12.20;99.90
14893;DHT22;7538;53.626;9.906;2023-05-20T04:51:14;12.20;99.90
14893;DHT22;7538;53.626;9.906;2023-05-20T04:53:41;12.20;99.90
14893;DHT22;7538;53.626;9.906;2023-05-20T04:56:08;12.20;99.90
14893;DHT22;7538;53.626;9.906;2023-05-20T04:58:34;12.20;99.90
14893;DHT22;7538;53.626;9.906;2023-05-20T05:01:01;12.30;99.90
14893;DHT22;7538;53.626;9.906;2023-05-20T05:03:28;12.40;99.90
14893;DHT22;7538;53.626;9.906;2023-05-20T05:05:55;12.50;99.90
14893;DHT22;7538;53.626;9.906;2023-05-20T05:08:24;12.60;99.90
14893;DHT22;7538;53.626;9.906;2023-05-20T05:10:52;12.90;99.90
14893;DHT22;7538;53.626;9.906;2023-05-20T05:13:19;13.10;99.90
14893;DHT22;7538;53.626;9.906;2023-05-20T05:15:46;13.20;99.90
14893;DHT22;7538;53.626;9.906;2023-05-20T05:18:12;13.40;99.90
14893;DHT22;7538;53.626;9.906;2023-05-20T05:20:42;13.50;99.90
14893;DHT22;7538;53.626;9.906;2023-05-20T05:23:09;13.50;99.90
14893;DHT22;7538;53.626;9.906;2023-05-20T05:25:37;13.60;99.90
14893;DHT22;7538;53.626;9.906;2023-05-20T05:28:04;13.80;99.90
14893;DHT22;7538;53.626;9.906;2023-05-20T05:30:32;13.80;99.90
14893;DHT22;7538;53.626;9.906;2023-05-20T05:33:00;17.30;99.90
14893;DHT22;7538;53.626;9.906;2023-05-20T05:35:26;14.40;99.90
14893;DHT22;7538;53.626;9.906;2023-05-20T05:37:53;14.90;99.90
14893;DHT22;7538;53.626;9.906;2023-05-20T05:40:20;15.40;99.90
14893;DHT22;7538;53.626;9.906;2023-05-20T05:42:49;15.50;99.90
14893;DHT22;7538;53.626;9.906;2023-05-20T05:45:16;15.80;99.90
14893;DHT22;7538;53.626;9.906;2023-05-20T05:47:42;16.30;99.90
14893;DHT22;7538;53.626;9.906;2023-05-20T05:50:09;16.70;99.90
14893;DHT22;7538;53.626;9.906;2023-05-20T05:52:36;17.20;99.50
14893;DHT22;7538;53.626;9.906;2023-05-20T05:55:03;17.30;98.80
14893;DHT22;7538;53.626;9.906;2023-05-20T05:57:30;17.50;98.40
14893;DHT22;7538;53.626;9.906;2023-05-20T05:59:59;18.30;97.00
14893;DHT22;7538;53.626;9.906;2023-05-20T06:02:26;18.60;95.20
14893;DHT22;7538;53.626;9.906;2023-05-20T06:04:53;19.20;94.90
14893;DHT22;7538;53.626;9.906;2023-05-20T06:07:19;19.90;92.50
14893;DHT22;7538;53.626;9.906;2023-05-20T06:09:46;19.70;92.80
14893;DHT22;7538;53.626;9.906;2023-05-20T06:12:13;20.20;92.10
14893;DHT22;7538;53.626;9.906;2023-05-20T06:14:40;20.90;91.50
14893;DHT22;7538;53.626;9.906;2023-05-20T06:17:08;21.90;89.40
14893;DHT22;7538;53.626;9.906;2023-05-20T06:19:35;22.90;84.90
14893;DHT22;7538;53.626;9.906;2023-05-20T06:22:02;23.50;81.80
14893;DHT22;7538;53.626;9.906;2023-05-20T06:24:28;24.00;80.40
14893;DHT22;7538;53.626;9.906;2023-05-20T06:26:55;24.40;78.10
14893;DHT22;7538;53.626;9.906;2023-05-20T06:29:22;24.80;75.90
14893;DHT22;7538;53.626;9.906;2023-05-20T06:31:49;25.40;74.90
14893;DHT22;7538;53.626;9.906;2023-05-20T06:34:17;26.00;73.00
14893;DHT22;7538;53.626;9.906;2023-05-20T06:36:44;26.40;70.50
14893;DHT22;7538;53.626;9.906;2023-05-20T06:39:11;24.20;66.50
14893;DHT22;7538;53.626;9.906;2023-05-20T06:41:38;26.00;68.50
14893;DHT22;7538;53.626;9.906;2023-05-20T06:44:05;26.10;68.60
14893;DHT22;7538;53.626;9.906;2023-05-20T06:46:32;25.90;67.60
14893;DHT22;7538;53.626;9.906;2023-05-20T06:48:59;25.90;68.00
14893;DHT22;7538;53.626;9.906;2023-05-20T06:51:27;25.90;68.10
14893;DHT22;7538;53.626;9.906;2023-05-20T06:53:54;26.30;66.50
14893;DHT22;7538;53.626;9.906;2023-05-20T06:56:21;26.20;66.10
14893;DHT22;7538;53.626;9.906;2023-05-20T06:58:48;26.60;66.50
14893;DHT22;7538;53.626;9.906;2023-05-20T07:01:14;27.30;65.40
14893;DHT22;7538;53.626;9.906;2023-05-20T07:03:41;28.20;62.00
14893;DHT22;7538;53.626;9.906;2023-05-20T07:06:09;28.30;59.70
14893;DHT22;7538;53.626;9.906;2023-05-20T07:08:37;28.50;59.50
14893;DHT22;7538;53.626;9.906;2023-05-20T07:11:04;28.60;60.00
14893;DHT22;7538;53.626;9.906;2023-05-20T07:13:30;29.20;59.70
14893;DHT22;7538;53.626;9.906;2023-05-20T07:15:57;30.10;57.70
14893;DHT22;7538;53.626;9.906;2023-05-20T07:18:24;30.60;55.40
14893;DHT22;7538;53.626;9.906;2023-05-20T07:20:51;31.00;54.50
14893;DHT22;7538;53.626;9.906;2023-05-20T07:23:18;31.20;53.00
14893;DHT22;7538;53.626;9.906;2023-05-20T07:25:46;31.60;51.70
14893;DHT22;7538;53.626;9.906;2023-05-20T07:28:14;31.60;51.20
14893;DHT22;7538;53.626;9.906;2023-05-20T07:30:42;31.00;50.00
14893;DHT22;7538;53.626;9.906;2023-05-20T07:33:11;30.60;51.70
14893;DHT22;7538;53.626;9.906;2023-05-20T07:35:37;29.60;51.30
14893;DHT22;7538;53.626;9.906;2023-05-20T07:38:04;28.80;54.10
14893;DHT22;7538;53.626;9.906;2023-05-20T07:40:31;28.90;53.60
14893;DHT22;7538;53.626;9.906;2023-05-20T07:42:59;28.90;53.30
14893;DHT22;7538;53.626;9.906;2023-05-20T07:45:26;28.90;53.70
14893;DHT22;7538;53.626;9.906;2023-05-20T07:47:53;29.00;54.20
14893;DHT22;7538;53.626;9.906;2023-05-20T07:50:20;29.10;53.50
14893;DHT22;7538;53.626;9.906;2023-05-20T07:52:47;29.30;53.60
14893;DHT22;7538;53.626;9.906;2023-05-20T07:55:13;29.10;52.50
14893;DHT22;7538;53.626;9.906;2023-05-20T07:57:40;28.90;53.00
14893;DHT22;7538;53.626;9.906;2023-05-20T08:00:10;28.60;52.60
14893;DHT22;7538;53.626;9.906;2023-05-20T08:02:38;28.50;53.20
14893;DHT22;7538;53.626;9.906;2023-05-20T08:05:05;28.10;53.00
14893;DHT22;7538;53.626;9.906;2023-05-20T08:07:33;27.70;53.10
14893;DHT22;7538;53.626;9.906;2023-05-20T08:09:59;26.60;54.20
14893;DHT22;7538;53.626;9.906;2023-05-20T08:12:26;25.70;56.20
14893;DHT22;7538;53.626;9.906;2023-05-20T08:14:53;25.60;56.70
14893;DHT22;7538;53.626;9.906;2023-05-20T08:17:21;25.20;57.20
14893;DHT22;7538;53.626;9.906;2023-05-20T08:19:48;25.50;57.20
14893;DHT22;7538;53.626;9.906;2023-05-20T08:22:15;25.60;56.30
14893;DHT22;7538;53.626;9.906;2023-05-20T08:24:42;27.60;58.10
14893;DHT22;7538;53.626;9.906;2023-05-20T08:27:09;25.60;56.50
14893;DHT22;7538;53.626;9.906;2023-05-20T08:29:36;25.30;56.80
14893;DHT22;7538;53.626;9.906;2023-05-20T08:32:03;24.40;58.20
14893;DHT22;7538;53.626;9.906;2023-05-20T08:34:31;26.90;59.60
14893;DHT22;7538;53.626;9.906;2023-05-20T08:36:58;24.80;58.80
14893;DHT22;7538;53.626;9.906;2023-05-20T08:39:25;25.30;58.10
14893;DHT22;7538;53.626;9.906;2023-05-20T08:41:52;25.70;56.70
14893;DHT22;7538;53.626;9.906;2023-05-20T08:44:20;25.70;56.10
14893;DHT22;7538;53.626;9.906;2023-05-20T08:46:47;25.40;56.40
14893;DHT22;7538;53.626;9.906;2023-05-20T08:49:15;25.00;57.10
14893;DHT22;7538;53.626;9.906;2023-05-20T08:51:43;25.40;56.80
14893;DHT22;7538;53.626;9.906;2023-05-20T08:54:11;26.30;55.70
14893;DHT22;7538;53.626;9.906;2023-05-20T08:56:39;26.60;54.60
14893;DHT22;7538;53.626;9.906;2023-05-20T08:59:07;26.80;52.50
14893;DHT22;7538;53.626;9.906;2023-05-20T09:01:38;25.60;54.00
14893;DHT22;7538;53.626;9.906;2023-05-20T09:04:07;24.30;55.60
14893;DHT22;7538;53.626;9.906;2023-05-20T09:06:43;23.80;56.80
14893;DHT22;7538;53.626;9.906;2023-05-20T09:09:10;23.50;57.60
14893;DHT22;7538;53.626;9.906;2023-05-20T09:11:38;23.60;57.90
14893;DHT22;7538;53.626;9.906;2023-05-20T09:14:06;23.50;58.00
14893;DHT22;7538;53.626;9.906;2023-05-20T09:16:33;22.90;58.70
14893;DHT22;7538;53.626;9.906;2023-05-20T09:19:00;22.40;58.90
14893;DHT22;7538;53.626;9.906;2023-05-20T09:21:27;21.80;60.90
14893;DHT22;7538;53.626;9.906;2023-05-20T09:23:55;21.50;61.90
14893;DHT22;7538;53.626;9.906;2023-05-20T09:26:26;22.00;62.30
14893;DHT22;7538;53.626;9.906;2023-05-20T09:28:55;22.40;60.90
14893;DHT22;7538;53.626;9.906;2023-05-20T09:31:25;22.50;59.80
14893;DHT22;7538;53.626;9.906;2023-05-20T09:33:54;22.50;59.30
14893;DHT22;7538;53.626;9.906;2023-05-20T09:36:22;21.90;59.70
14893;DHT22;7538;53.626;9.906;2023-05-20T09:38:51;21.50;61.30
14893;DHT22;7538;53.626;9.906;2023-05-20T09:41:22;21.50;61.50
14893;DHT22;7538;53.626;9.906;2023-05-20T09:43:51;21.40;62.50
14893;DHT22;7538;53.626;9.906;2023-05-20T09:46:19;21.30;63.40
14893;DHT22;7538;53.626;9.906;2023-05-20T09:48:46;21.30;62.90
14893;DHT22;7538;53.626;9.906;2023-05-20T09:51:14;21.30;62.80
14893;DHT22;7538;53.626;9.906;2023-05-20T09:53:41;20.80;63.90
14893;DHT22;7538;53.626;9.906;2023-05-20T09:56:08;20.60;65.10
14893;DHT22;7538;53.626;9.906;2023-05-20T09:58:37;20.40;64.70
14893;DHT22;7538;53.626;9.906;2023-05-20T10:01:06;20.00;66.50
14893;DHT22;7538;53.626;9.906;2023-05-20T10:03:33;19.70;68.20
14893;DHT22;7538;53.626;9.906;2023-05-20T10:06:20;19.60;68.60
14893;DHT22;7538;53.626;9.906;2023-05-20T10:09:00;19.40;69.80
14893;DHT22;7538;53.626;9.906;2023-05-20T10:11:36;19.30;69.60
14893;DHT22;7538;53.626;9.906;2023-05-20T10:14:25;19.20;70.30
14893;DHT22;7538;53.626;9.906;2023-05-20T10:17:05;19.20;70.70
14893;DHT22;7538;53.626;9.906;2023-05-20T10:19:34;19.00;71.30
14893;DHT22;7538;53.626;9.906;2023-05-20T10:22:03;18.80;72.60
14893;DHT22;7538;53.626;9.906;2023-05-20T10:24:31;18.60;73.20
14893;DHT22;7538;53.626;9.906;2023-05-20T10:27:01;18.40;74.40
14893;DHT22;7538;53.626;9.906;2023-05-20T10:29:40;18.40;74.90
14893;DHT22;7538;53.626;9.906;2023-05-20T10:32:07;18.50;74.90
14893;DHT22;7538;53.626;9.906;2023-05-20T10:34:44;18.60;75.30
14893;DHT22;7538;53.626;9.906;2023-05-20T10:37:23;18.50;75.70
14893;DHT22;7538;53.626;9.906;2023-05-20T10:39:51;18.50;76.30
14893;DHT22;7538;53.626;9.906;2023-05-20T10:42:27;18.80;76.10
14893;DHT22;7538;53.626;9.906;2023-05-20T10:44:56;19.30;74.80
14893;DHT22;7538;53.626;9.906;2023-05-20T10:47:23;19.50;73.90
14893;DHT22;7538;53.626;9.906;2023-05-20T10:49:50;19.70;74.50
14893;DHT22;7538;53.626;9.906;2023-05-20T10:52:17;19.70;73.90
14893;DHT22;7538;53.626;9.906;2023-05-20T10:54:46;19.60;74.50
14893;DHT22;7538;53.626;9.906;2023-05-20T10:57:13;19.50;75.00
14893;DHT22;7538;53.626;9.906;2023-05-20T10:59:40;19.40;77.40
14893;DHT22;7538;53.626;9.906;2023-05-20T11:02:10;19.40;78.40
14893;DHT22;7538;53.626;9.906;2023-05-20T11:04:38;19.40;79.30
14893;DHT22;7538;53.626;9.906;2023-05-20T11:07:05;19.20;79.80
14893;DHT22;7538;53.626;9.906;2023-05-20T11:09:32;19.10;80.20
14893;DHT22;7538;53.626;9.906;2023-05-20T11:11:59;19.00;80.80
14893;DHT22;7538;53.626;9.906;2023-05-20T11:14:27;19.00;82.00
14893;DHT22;7538;53.626;9.906;2023-05-20T11:16:55;19.00;82.50
14893;DHT22;7538;53.626;9.906;2023-05-20T11:19:24;19.20;82.50
14893;DHT22;7538;53.626;9.906;2023-05-20T11:21:52;18.90;82.70
14893;DHT22;7538;53.626;9.906;2023-05-20T11:24:23;18.80;83.70
14893;DHT22;7538;53.626;9.906;2023-05-20T11:26:51;18.50;83.90
14893;DHT22;7538;53.626;9.906;2023-05-20T11:29:18;18.50;83.90
14893;DHT22;7538;53.626;9.906;2023-05-20T11:31:47;18.40;82.90
14893;DHT22;7538;53.626;9.906;2023-05-20T11:34:15;18.30;84.00
14893;DHT22;7538;53.626;9.906;2023-05-20T11:36:43;18.30;84.70
14893;DHT22;7538;53.626;9.906;2023-05-20T11:39:11;18.30;84.40
14893;DHT22;7538;53.626;9.906;2023-05-20T11:41:41;18.30;83.70
14893;DHT22;7538;53.626;9.906;2023-05-20T11:44:09;18.30;84.10
14893;DHT22;7538;53.626;9.906;2023-05-20T11:46:40;18.30;85.00
14893;DHT22;7538;53.626;9.906;2023-05-20T11:49:08;18.50;83.00
14893;DHT22;7538;53.626;9.906;2023-05-20T11:51:36;20.40;84.00
14893;DHT22;7538;53.626;9.906;2023-05-20T11:54:06;18.70;84.50
14893;DHT22;7538;53.626;9.906;2023-05-20T11:56:35;18.90;86.10
14893;DHT22;7538;53.626;9.906;2023-05-20T11:59:02;19.00;86.90
14893;DHT22;7538;53.626;9.906;2023-05-20T12:01:31;18.90;86.00
14893;DHT22;7538;53.626;9.906;2023-05-20T12:04:02;19.00;86.20
14893;DHT22;7538;53.626;9.906;2023-05-20T12:06:29;18.90;87.00
14893;DHT22;7538;53.626;9.906;2023-05-20T12:08:57;18.80;88.50
14893;DHT22;7538;53.626;9.906;2023-05-20T12:11:25;18.70;89.50
14893;DHT22;7538;53.626;9.906;2023-05-20T12:13:52;18.50;90.00
14893;DHT22;7538;53.626;9.906;2023-05-20T12:16:19;18.40;90.70
14893;DHT22;7538;53.626;9.906;2023-05-20T12:18:46;18.20;91.20
14893;DHT22;7538;53.626;9.906;2023-05-20T12:21:13;18.10;91.80
14893;DHT22;7538;53.626;9.906;2023-05-20T12:23:39;17.90;91.90
14893;DHT22;7538;53.626;9.906;2023-05-20T12:26:06;17.90;92.40
14893;DHT22;7538;53.626;9.906;2023-05-20T12:28:34;17.80;92.50
14893;DHT22;7538;53.626;9.906;2023-05-20T12:31:01;17.80;93.00
14893;DHT22;7538;53.626;9.906;2023-05-20T12:33:28;17.90;93.10
14893;DHT22;7538;53.626;9.906;2023-05-20T12:35:55;18.00;93.10
14893;DHT22;7538;53.626;9.906;2023-05-20T12:38:21;18.20;92.90
14893;DHT22;7538;53.626;9.906;2023-05-20T12:40:48;18.30;92.90
14893;DHT22;7538;53.626;9.906;2023-05-20T12:43:15;18.40;92.40
14893;DHT22;7538;53.626;9.906;2023-05-20T12:45:43;18.40;91.70
14893;DHT22;7538;53.626;9.906;2023-05-20T12:48:11;18.20;92.20
14893;DHT22;7538;53.626;9.906;2023-05-20T12:50:38;18.20;92.50
14893;DHT22;7538;53.626;9.906;2023-05-20T12:53:05;18.30;92.70
14893;DHT22;7538;53.626;9.906;2023-05-20T12:55:31;18.40;92.70
14893;DHT22;7538;53.626;9.906;2023-05-20T12:57:58;18.40;92.60
14893;DHT22;7538;53.626;9.906;2023-05-20T13:00:25;18.30;92.60
14893;DHT22;7538;53.626;9.906;2023-05-20T13:02:53;18.30;92.90
14893;DHT22;7538;53.626;9.906;2023-05-20T13:05:20;18.20;93.00
14893;DHT22;7538;53.626;9.906;2023-05-20T13:07:47;18.10;93.20
14893;DHT22;7538;53.626;9.906;2023-05-20T13:10:14;18.00;93.80
14893;DHT22;7538;53.626;9.906;2023-05-20T13:12:42;17.90;93.80
14893;DHT22;7538;53.626;9.906;2023-05-20T13:15:10;17.90;93.80
14893;DHT22;7538;53.626;9.906;2023-05-20T13:17:37;17.90;93.80
14893;DHT22;7538;53.626;9.906;2023-05-20T13:20:07;17.90;93.90
14893;DHT22;7538;53.626;9.906;2023-05-20T13:22:35;18.00;93.50
14893;DHT22;7538;53.626;9.906;2023-05-20T13:25:02;18.10;93.80
14893;DHT22;7538;53.626;9.906;2023-05-20T13:27:29;18.20;93.80
14893;DHT22;7538;53.626;9.906;2023-05-20T13:29:56;18.30;92.80
14893;DHT22;7538;53.626;9.906;2023-05-20T13:32:23;18.20;92.60
14893;DHT22;7538;53.626;9.906;2023-05-20T13:34:50;18.20;92.50
14893;DHT22;7538;53.626;9.906;2023-05-20T13:37:18;18.40;92.70
14893;DHT22;7538;53.626;9.906;2023-05-20T13:39:45;18.50;92.60
14893;DHT22;7538;53.626;9.906;2023-05-20T13:42:12;18.60;92.70
14893;DHT22;7538;53.626;9.906;2023-05-20T13:44:39;18.80;93.00
14893;DHT22;7538;53.626;9.906;2023-05-20T13:47:06;18.90;93.30
14893;DHT22;7538;53.626;9.906;2023-05-20T13:49:32;19.00;93.40
14893;DHT22;7538;53.626;9.906;2023-05-20T13:52:00;18.90;93.70
14893;DHT22;7538;53.626;9.906;2023-05-20T13:54:28;19.00;93.50
14893;DHT22;7538;53.626;9.906;2023-05-20T13:56:54;18.90;93.60
14893;DHT22;7538;53.626;9.906;2023-05-20T13:59:21;19.00;93.60
14893;DHT22;7538;53.626;9.906;2023-05-20T14:01:48;18.90;93.70
14893;DHT22;7538;53.626;9.906;2023-05-20T14:04:15;18.80;93.30
14893;DHT22;7538;53.626;9.906;2023-05-20T14:06:42;18.70;93.80
14893;DHT22;7538;53.626;9.906;2023-05-20T14:09:09;18.70;93.20
14893;DHT22;7538;53.626;9.906;2023-05-20T14:11:37;18.60;93.00
14893;DHT22;7538;53.626;9.906;2023-05-20T14:14:04;18.60;92.80
14893;DHT22;7538;53.626;9.906;2023-05-20T14:16:31;18.40;91.60
14893;DHT22;7538;53.626;9.906;2023-05-20T14:18:58;18.30;92.10
14893;DHT22;7538;53.626;9.906;2023-05-20T14:21:24;18.30;92.30
14893;DHT22;7538;53.626;9.906;2023-05-20T14:23:51;18.40;92.60
14893;DHT22;7538;53.626;9.906;2023-05-20T14:26:18;18.60;92.80
14893;DHT22;7538;53.626;9.906;2023-05-20T14:28:47;18.60;93.20
14893;DHT22;7538;53.626;9.906;2023-05-20T14:31:14;18.60;93.60
14893;DHT22;7538;53.626;9.906;2023-05-20T14:33:40;18.30;94.20
14893;DHT22;7538;53.626;9.906;2023-05-20T14:36:07;18.20;94.90
14893;DHT22;7538;53.626;9.906;2023-05-20T14:38:34;18.00;95.20
14893;DHT22;7538;53.626;9.906;2023-05-20T14:41:01;18.00;95.70
14893;DHT22;7538;53.626;9.906;2023-05-20T14:43:28;17.90;96.10
14893;DHT22;7538;53.626;9.906;2023-05-20T14:45:58;18.00;96.50
14893;DHT22;7538;53.626;9.906;2023-05-20T14:48:24;18.10;96.30
14893;DHT22;7538;53.626;9.906;2023-05-20T14:50:51;18.20;96.20
14893;DHT22;7538;53.626;9.906;2023-05-20T14:53:18;18.30;95.90
14893;DHT22;7538;53.626;9.906;2023-05-20T14:55:45;18.40;95.20
14893;DHT22;7538;53.626;9.906;2023-05-20T14:58:12;18.40;95.20
14893;DHT22;7538;53.626;9.906;2023-05-20T15:00:39;18.30;95.60
14893;DHT22;7538;53.626;9.906;2023-05-20T15:03:07;18.30;95.80
14893;DHT22;7538;53.626;9.906;2023-05-20T15:05:34;18.40;95.60
14893;DHT22;7538;53.626;9.906;2023-05-20T15:08:00;18.50;95.30
14893;DHT22;7538;53.626;9.906;2023-05-20T15:10:27;18.50;95.10
14893;DHT22;7538;53.626;9.906;2023-05-20T15:12:54;18.40;95.40
14893;DHT22;7538;53.626;9.906;2023-05-20T15:15:21;18.50;95.70
14893;DHT22;7538;53.626;9.906;2023-05-20T15:17:47;18.40;95.50
14893;DHT22;7538;53.626;9.906;2023-05-20T15:20:16;18.40;95.80
14893;DHT22;7538;53.626;9.906;2023-05-20T15:22:43;18.50;95.90
14893;DHT22;7538;53.626;9.906;2023-05-20T15:25:12;18.40;95.80
14893;DHT22;7538;53.626;9.906;2023-05-20T15:27:39;18.30;96.00
14893;DHT22;7538;53.626;9.906;2023-05-20T15:30:08;18.20;95.90
14893;DHT22;7538;53.626;9.906;2023-05-20T15:32:35;18.00;96.30
14893;DHT22;7538;53.626;9.906;2023-05-20T15:35:02;17.80;96.90
14893;DHT22;7538;53.626;9.906;2023-05-20T15:37:30;17.80;97.60
14893;DHT22;7538;53.626;9.906;2023-05-20T15:39:57;17.90;97.70
14893;DHT22;7538;53.626;9.906;2023-05-20T15:42:24;18.00;97.70
14893;DHT22;7538;53.626;9.906;2023-05-20T15:44:51;17.60;97.90
14893;DHT22;7538;53.626;9.906;2023-05-20T15:47:18;17.40;98.50